Time;durP1;ratioP1;P1;durP2;ratioP2;P2;SDS_P1;SDS_P2;PMS_P1;PMS_P2;Temp;Humidity;BMP_temperature;BMP_pressure;BME280_temperature;BME280_humidity;BME280_pressure;Samples;Min_cycle;Max_cycle;Signal;HPM_P1;HPM_P2
2024/05/02 00:09:10;;;;;;;15.5;11.7;;;;;;;;;;;;;-68
2024/05/02 00:39:12;;;;;;;17.3;10.6;;;;;;;;;;;;;-69
2024/05/02 01:09:15;;;;;;;13.8;9.3;;;;;;;;;;;;;-71
2024/05/02 01:39:17;;;;;;;15.3;9.4;;;;;;;;;;;;;-69
2024/05/02 02:09:20;;;;;;;12.8;9.2;;;;;;;;;;;;;-68
2024/05/02 02:39:22;;;;;;;10.9;8.3;;;;;;;;;;;;;-69
2024/05/02 03:09:24;;;;;;;12.7;8.6;;;;;;;;;;;;;-68
2024/05/02 03:39:26;;;;;;;11.9;8.2;;;;;;;;;;;;;-69
2024/05/02 04:09:29;;;;;;;14;7.8;;;;;;;;;;;;;-70
2024/05/02 04:39:31;;;;;;;13.7;6.7;;;;;;;;;;;;;-68
2024/05/02 05:09:33;;;;;;;9.3;6.1;;;;;;;;;;;;;-69
2024/05/02 05:39:35;;;;;;;8.9;5.7;;;;;;;;;;;;;-64
2024/05/02 06:09:38;;;;;;;13.4;5.9;;;;;;;;;;;;;-70
2024/05/02 06:39:42;;;;;;;10.4;5.1;;;;;;;;;;;;;-75
2024/05/02 07:09:45;;;;;;;9.9;4.9;;;;;;;;;;;;;-69
2024/05/02 07:39:49;;;;;;;8.4;5.2;;;;;;;;;;;;;-68
2024/05/02 08:09:53;;;;;;;10.6;5.6;;;;;;;;;;;;;-69
2024/05/02 08:39:56;;;;;;;11.4;5.9;;;;;;;;;;;;;-72
2024/05/02 09:10:00;;;;;;;10.5;6.3;;;;;;;;;;;;;-69
2024/05/02 09:40:05;;;;;;;8.4;5.3;;;;;;;;;;;;;-69
2024/05/02 10:10:09;;;;;;;12.7;5.5;;;;;;;;;;;;;-68
2024/05/02 10:40:15;;;;;;;8.7;5.3;;;;;;;;;;;;;-68
2024/05/02 11:10:18;;;;;;;8.7;5.8;;;;;;;;;;;;;-73
2024/05/02 11:40:22;;;;;;;9;4.9;;;;;;;;;;;;;-70
2024/05/02 12:10:28;;;;;;;8.6;4.2;;;;;;;;;;;;;-68
2024/05/02 12:40:33;;;;;;;6.7;4.2;;;;;;;;;;;;;-70
2024/05/02 13:10:39;;;;;;;7;4;;;;;;;;;;;;;-71
2024/05/02 13:40:45;;;;;;;5.8;3.9;;;;;;;;;;;;;-69
2024/05/02 14:10:51;;;;;;;8.2;4.1;;;;;;;;;;;;;-69
2024/05/02 14:40:57;;;;;;;5.4;3.7;;;;;;;;;;;;;-69
2024/05/02 15:11:03;;;;;;;9.7;4.3;;;;;;;;;;;;;-70
2024/05/02 15:41:08;;;;;;;21.7;12.9;;;;;;;;;;;;;-72
2024/05/02 16:11:13;;;;;;;29.8;16.6;;;;;;;;;;;;;-69
2024/05/02 16:41:17;;;;;;;38.7;20.2;;;;;;;;;;;;;-71
2024/05/02 17:11:21;;;;;;;33.6;18.4;;;;;;;;;;;;;-70
2024/05/02 17:41:26;;;;;;;34.1;19.1;;;;;;;;;;;;;-72
2024/05/02 18:11:28;;;;;;;53;26.8;;;;;;;;;;;;;-71
2024/05/02 18:41:31;;;;;;;66.4;35.6;;;;;;;;;;;;;-69
2024/05/02 19:11:34;;;;;;;61.1;33.8;;;;;;;;;;;;;-66
2024/05/02 19:41:38;;;;;;;69;34.7;;;;;;;;;;;;;-68
2024/05/02 20:11:40;;;;;;;80.6;37;;;;;;;;;;;;;-66
2024/05/02 20:41:41;;;;;;;108.6;45.2;;;;;;;;;;;;;-65
2024/05/02 21:11:44;;;;;;;101.3;42.7;;;;;;;;;;;;;-75
2024/05/02 21:41:45;;;;;;;101.8;40;;;;;;;;;;;;;-74
2024/05/02 22:11:47;;;;;;;109.8;45.4;;;;;;;;;;;;;-72
2024/05/02 22:41:49;;;;;;;123.9;49.6;;;;;;;;;;;;;-70
2024/05/02 23:11:51;;;;;;;109.1;46.9;;;;;;;;;;;;;-70
2024/05/02 23:41:54;;;;;;;103.8;44.7;;;;;;;;;;;;;-73
